createdAt,value
2023-04-28T00:00:31.582Z,93696.44
2023-04-28T00:02:59.784Z,93695.13
2023-04-28T00:05:28.382Z,93703.78
2023-04-28T00:07:56.355Z,93697.47
2023-04-28T00:10:24.326Z,93699.91
2023-04-28T00:12:52.180Z,93693.28
2023-04-28T00:15:20.434Z,93697.31
2023-04-28T00:17:48.698Z,93689.31
2023-04-28T00:20:17.126Z,93698.22
2023-04-28T00:22:45.034Z,93690.91
2023-04-28T00:25:13.152Z,93705.78
2023-04-28T00:27:41.024Z,93701.81
2023-04-28T00:30:09.744Z,93702.63
2023-04-28T00:32:37.721Z,93702.69
2023-04-28T00:35:07.269Z,93698.16
2023-04-28T00:37:39.126Z,93695.72
2023-04-28T00:40:07.886Z,93706.16
2023-04-28T00:42:35.809Z,93701.56
2023-04-28T00:45:07.578Z,93704.47
2023-04-28T00:47:37.562Z,93707.91
2023-04-28T00:50:06.824Z,93707.13
2023-04-28T00:52:34.954Z,93708.34
2023-04-28T00:55:03.753Z,93698.59
2023-04-28T00:57:31.768Z,93712.75
2023-04-28T01:00:01.241Z,93701.84
2023-04-28T01:02:30.851Z,93717.66
2023-04-28T01:05:00.180Z,93722.50
2023-04-28T01:07:28.790Z,93730.44
2023-04-28T01:09:57.200Z,93726.41
2023-04-28T01:12:30.898Z,93729.91
2023-04-28T01:14:59.719Z,93691.03
2023-04-28T01:17:28.400Z,93722.47
2023-04-28T01:19:56.694Z,93726.97
2023-04-28T01:22:24.587Z,93733.94
2023-04-28T01:24:52.502Z,93723.72
2023-04-28T01:27:20.986Z,93730.66
2023-04-28T01:29:49.165Z,93726.97
2023-04-28T01:32:17.260Z,93723.38
2023-04-28T01:34:45.088Z,93730.06
2023-04-28T01:37:13.281Z,93733.13
2023-04-28T01:39:41.102Z,93732.97
2023-04-28T01:42:09.074Z,93735.88
2023-04-28T01:44:36.920Z,93741.56
2023-04-28T01:47:05.268Z,93743.66
2023-04-28T01:49:36.151Z,93735.72
2023-04-28T01:52:04.162Z,93744.91
2023-04-28T01:54:32.396Z,93739.56
2023-04-28T01:57:00.373Z,93732.59
2023-04-28T01:59:28.368Z,93738.97
2023-04-28T02:01:56.764Z,93746.09
2023-04-28T02:04:24.825Z,93740.41
2023-04-28T02:06:53.231Z,93737.41
2023-04-28T02:09:21.495Z,93740.25
2023-04-28T02:11:49.664Z,93742.53
2023-04-28T02:14:17.881Z,93740.94
2023-04-28T02:16:46.463Z,93735.66
2023-04-28T02:19:16.053Z,93754.00
2023-04-28T02:21:44.085Z,93749.56
2023-04-28T02:24:12.063Z,93759.75
2023-04-28T02:26:40.169Z,93756.69
2023-04-28T02:29:08.182Z,93758.56
2023-04-28T02:31:36.346Z,93763.44
2023-04-28T02:34:04.305Z,93761.38
2023-04-28T02:36:33.450Z,93760.59
2023-04-28T02:39:01.684Z,93764.81
2023-04-28T02:41:31.356Z,93761.22
2023-04-28T02:43:59.250Z,93765.31
2023-04-28T02:46:27.457Z,93766.53
2023-04-28T02:48:56.615Z,93768.56
2023-04-28T02:51:24.522Z,93772.84
2023-04-28T02:55:12.169Z,93773.25
2023-04-28T02:57:40.385Z,93782.00
2023-04-28T03:00:09.320Z,93786.66
2023-04-28T03:02:45.194Z,93767.16
2023-04-28T03:05:13.201Z,93788.69
2023-04-28T03:07:41.195Z,93781.16
2023-04-28T03:10:09.575Z,93784.44
2023-04-28T03:12:37.464Z,93790.94
2023-04-28T03:15:09.238Z,93801.88
2023-04-28T03:17:42.187Z,93795.56
2023-04-28T03:20:11.763Z,93796.38
2023-04-28T03:22:40.053Z,93798.22
2023-04-28T03:25:08.842Z,93786.06
2023-04-28T03:27:46.121Z,93809.19
2023-04-28T03:30:14.321Z,93809.78
2023-04-28T03:32:42.146Z,93822.56
2023-04-28T03:35:10.403Z,93818.69
2023-04-28T03:37:39.323Z,93821.53
2023-04-28T03:40:07.642Z,93825.38
2023-04-28T03:42:56.236Z,93830.25
2023-04-28T03:45:30.046Z,93833.50
2023-04-28T03:47:58.224Z,93835.72
2023-04-28T03:50:26.851Z,93842.19
2023-04-28T03:52:56.059Z,93837.75
2023-04-28T03:55:28.409Z,93840.78
2023-04-28T03:57:56.657Z,93849.69
2023-04-28T04:00:24.706Z,93852.75
2023-04-28T04:02:54.655Z,93851.97
2023-04-28T04:05:22.913Z,93850.50
2023-04-28T04:07:50.923Z,93868.34
2023-04-28T04:10:19.205Z,93863.28
2023-04-28T04:12:47.701Z,93871.56
2023-04-28T04:15:15.644Z,93878.31
2023-04-28T04:17:45.114Z,93871.81
2023-04-28T04:20:13.225Z,93875.88
2023-04-28T04:22:41.414Z,93877.72
2023-04-28T04:25:09.780Z,93873.25
2023-04-28T04:27:37.749Z,93886.25
2023-04-28T04:30:06.786Z,93881.16
2023-04-28T04:32:34.748Z,93878.13
2023-04-28T04:35:02.696Z,93884.56
2023-04-28T04:37:31.114Z,93889.81
2023-04-28T04:40:03.337Z,93893.09
2023-04-28T04:42:36.950Z,93893.34
2023-04-28T04:45:09.989Z,93885.22
2023-04-28T04:47:38.396Z,93892.94
2023-04-28T04:50:07.200Z,93886.91
2023-04-28T04:52:35.304Z,93887.72
2023-04-28T04:55:04.013Z,93894.00
2023-04-28T04:57:33.005Z,93889.16
2023-04-28T05:00:07.528Z,93888.94
2023-04-28T05:02:36.134Z,93886.91
2023-04-28T05:05:19.693Z,93889.97
2023-04-28T05:08:01.056Z,93889.97
2023-04-28T05:10:29.744Z,93884.28
2023-04-28T05:12:57.845Z,93894.00
2023-04-28T05:15:25.810Z,93892.53
2023-04-28T05:18:14.026Z,93889.25
2023-04-28T05:20:42.086Z,93886.75
2023-04-28T05:23:10.855Z,93887.91
2023-04-28T05:25:39.103Z,93880.13
2023-04-28T05:28:10.144Z,93883.28
2023-04-28T05:30:38.192Z,93882.56
2023-04-28T05:33:06.365Z,93890.06
2023-04-28T05:35:34.548Z,93885.47
2023-04-28T05:38:02.544Z,93891.09
2023-04-28T05:40:30.567Z,93885.38
2023-04-28T05:42:58.458Z,93875.72
2023-04-28T05:45:26.453Z,93883.44
2023-04-28T05:47:55.125Z,93887.59
2023-04-28T05:50:23.669Z,93889.31
2023-04-28T05:52:52.147Z,93882.94
2023-04-28T05:55:20.122Z,93892.16
2023-04-28T05:57:52.942Z,93890.19
2023-04-28T06:00:22.766Z,93885.31
2023-04-28T06:02:54.186Z,93887.28
2023-04-28T06:05:23.450Z,93885.81
2023-04-28T06:07:56.587Z,93876.56
2023-04-28T06:10:26.593Z,93867.28
2023-04-28T06:12:54.740Z,93867.72
2023-04-28T06:15:22.872Z,93878.47
2023-04-28T06:17:51.535Z,93871.69
2023-04-28T06:20:19.489Z,93865.31
2023-04-28T06:22:47.358Z,93859.84
2023-04-28T06:25:15.273Z,93857.84
2023-04-28T06:27:46.609Z,93859.69
2023-04-28T06:30:20.509Z,93858.03
2023-04-28T06:32:48.562Z,93862.59
2023-04-28T06:35:17.265Z,93847.72
2023-04-28T06:37:45.292Z,93858.13
2023-04-28T06:40:13.442Z,93860.06
2023-04-28T06:42:46.812Z,93862.81
2023-04-28T06:45:21.414Z,93855.66
2023-04-28T06:47:49.742Z,93851.56
2023-04-28T06:50:17.661Z,93853.13
2023-04-28T06:52:45.730Z,93847.41
2023-04-28T06:55:17.129Z,93846.25
2023-04-28T06:57:45.527Z,93839.25
2023-04-28T07:00:14.204Z,93842.06
2023-04-28T07:02:42.412Z,93845.44
2023-04-28T07:05:10.836Z,93843.53
2023-04-28T07:07:39.251Z,93839.97
2023-04-28T07:10:07.677Z,93845.50
2023-04-28T07:12:35.505Z,93847.38
2023-04-28T07:15:03.741Z,93846.88
2023-04-28T07:17:33.468Z,93847.22
2023-04-28T07:20:01.436Z,93845.72
2023-04-28T07:22:29.180Z,93843.03
2023-04-28T07:24:57.660Z,93833.03
2023-04-28T07:27:25.856Z,93840.47
2023-04-28T07:29:53.865Z,93828.47
2023-04-28T07:32:22.865Z,93836.00
2023-04-28T07:34:51.266Z,93833.78
2023-04-28T07:37:19.375Z,93841.84
2023-04-28T07:39:47.683Z,93839.09
2023-04-28T07:42:15.648Z,93835.94
2023-04-28T07:44:43.584Z,93839.72
2023-04-28T07:47:11.682Z,93839.59
2023-04-28T07:49:39.829Z,93842.13
2023-04-28T07:52:07.753Z,93838.91
2023-04-28T07:54:37.201Z,93827.97
2023-04-28T07:57:06.529Z,93836.06
2023-04-28T07:59:34.721Z,93818.25
2023-04-28T08:02:02.824Z,93828.59
2023-04-28T08:04:32.518Z,93843.38
2023-04-28T08:07:01.150Z,93838.56
2023-04-28T08:09:29.126Z,93840.28
2023-04-28T08:11:57.066Z,93828.44
2023-04-28T08:14:25.553Z,93837.41
2023-04-28T08:16:53.819Z,93832.06
2023-04-28T08:19:23.496Z,93829.75
2023-04-28T08:21:51.778Z,93836.41
2023-04-28T08:24:19.682Z,93827.06
2023-04-28T08:26:47.748Z,93818.97
2023-04-28T08:29:15.602Z,93819.97
2023-04-28T08:34:26.625Z,93818.50
2023-04-28T08:36:54.807Z,93815.25
2023-04-28T08:39:23.926Z,93778.19
2023-04-28T08:41:51.732Z,93807.34
2023-04-28T08:44:20.069Z,93795.97
2023-04-28T08:46:50.424Z,93810.28
2023-04-28T08:49:19.074Z,93807.81
2023-04-28T08:51:57.640Z,93801.00
2023-04-28T08:54:31.258Z,93802.97
2023-04-28T08:56:59.628Z,93804.47
2023-04-28T08:59:27.987Z,93795.97
2023-04-28T09:01:57.229Z,93806.19
2023-04-28T09:04:25.605Z,93803.28
2023-04-28T09:06:54.014Z,93802.38
2023-04-28T09:09:48.310Z,93797.78
2023-04-28T09:12:16.671Z,93802.00
2023-04-28T09:14:44.786Z,93793.94
2023-04-28T09:17:14.720Z,93788.72
2023-04-28T09:19:45.891Z,93792.78
2023-04-28T09:22:26.134Z,93794.97
2023-04-28T09:24:56.375Z,93798.84
2023-04-28T09:27:28.981Z,93792.78
2023-04-28T09:29:57.435Z,93785.88
2023-04-28T09:32:28.381Z,93790.69
2023-04-28T09:34:57.350Z,93785.72
2023-04-28T09:37:32.356Z,93783.63
2023-04-28T09:40:09.664Z,93782.28
2023-04-28T09:42:44.584Z,93779.97
2023-04-28T09:45:14.605Z,93779.97
2023-04-28T09:47:46.707Z,93772.06
2023-04-28T09:50:17.742Z,93772.44
2023-04-28T09:53:00.038Z,93756.00
2023-04-28T09:55:29.466Z,93765.28
2023-04-28T09:58:02.281Z,93759.38
2023-04-28T10:00:31.393Z,93763.72
2023-04-28T10:03:00.513Z,93767.69
2023-04-28T10:05:29.209Z,93759.50
2023-04-28T10:07:57.497Z,93744.47
2023-04-28T10:10:27.559Z,93755.16
2023-04-28T10:12:55.785Z,93743.34
2023-04-28T10:15:23.928Z,93740.97
2023-04-28T10:17:53.386Z,93736.78
2023-04-28T10:20:23.276Z,93746.97
2023-04-28T10:22:51.143Z,93745.56
2023-04-28T10:25:32.815Z,93746.88
2023-04-28T10:28:05.078Z,93753.03
2023-04-28T10:30:34.193Z,93745.50
2023-04-28T10:33:14.324Z,93745.50
2023-04-28T10:35:45.365Z,93736.22
2023-04-28T10:38:18.054Z,93735.41
2023-04-28T10:40:47.705Z,93727.63
2023-04-28T10:43:39.802Z,93727.53
2023-04-28T10:46:09.486Z,93732.03
2023-04-28T10:48:49.191Z,93717.81
2023-04-28T10:51:17.239Z,93724.47
2023-04-28T10:53:45.285Z,93721.56
2023-04-28T10:56:25.460Z,93718.47
2023-04-28T10:58:55.107Z,93708.06
2023-04-28T11:01:24.970Z,93712.50
2023-04-28T11:04:15.977Z,93716.47
2023-04-28T11:06:46.243Z,93703.47
2023-04-28T11:09:20.143Z,93706.88
2023-04-28T11:12:00.260Z,93702.94
2023-04-28T11:14:32.639Z,93707.63
2023-04-28T11:17:13.578Z,93710.69
2023-04-28T11:19:46.819Z,93697.16
2023-04-28T11:22:17.392Z,93689.41
2023-04-28T11:24:58.542Z,93692.56
2023-04-28T11:27:31.825Z,93694.56
2023-04-28T11:30:01.921Z,93696.19
2023-04-28T11:32:40.488Z,93693.97
2023-04-28T11:35:10.143Z,93692.28
2023-04-28T11:37:39.260Z,93691.97
2023-04-28T11:40:14.179Z,93668.16
2023-04-28T11:42:51.274Z,93682.91
2023-04-28T11:45:19.297Z,93685.09
2023-04-28T11:47:47.715Z,93681.38
2023-04-28T11:50:16.590Z,93676.28
2023-04-28T11:52:53.462Z,93678.22
2023-04-28T11:55:21.997Z,93679.34
2023-04-28T11:57:49.959Z,93669.81
2023-04-28T12:00:22.207Z,93664.72
2023-04-28T12:02:51.275Z,93662.72
2023-04-28T12:05:22.518Z,93656.63
2023-04-28T12:07:50.794Z,93654.16
2023-04-28T12:10:20.078Z,93661.66
2023-04-28T12:12:52.792Z,93658.16
2023-04-28T12:15:22.884Z,93649.47
2023-04-28T12:17:51.707Z,93653.53
2023-04-28T12:20:38.063Z,93646.50
2023-04-28T12:23:06.749Z,93643.16
2023-04-28T12:25:44.589Z,93639.91
2023-04-28T12:28:12.698Z,93638.63
2023-04-28T12:30:43.845Z,93641.44
2023-04-28T12:33:29.840Z,93630.19
2023-04-28T12:35:58.588Z,93622.66
2023-04-28T12:38:27.737Z,93619.41
2023-04-28T12:40:56.071Z,93627.88
2023-04-28T12:43:24.447Z,93622.13
2023-04-28T12:45:56.839Z,93622.41
2023-04-28T12:48:25.515Z,93619.00
2023-04-28T12:50:53.534Z,93617.06
2023-04-28T12:53:22.062Z,93613.22
2023-04-28T12:55:49.825Z,93610.88
2023-04-28T12:58:20.336Z,93602.88
2023-04-28T13:00:48.380Z,93603.88
2023-04-28T13:03:16.578Z,93609.56
2023-04-28T13:05:45.187Z,93610.09
2023-04-28T13:08:14.228Z,93603.81
2023-04-28T13:10:42.280Z,93613.97
2023-04-28T13:13:10.200Z,93610.19
2023-04-28T13:15:39.025Z,93606.44
2023-04-28T13:18:07.190Z,93605.94
2023-04-28T13:20:35.562Z,93587.41
2023-04-28T13:23:03.787Z,93592.22
2023-04-28T13:25:31.994Z,93595.22
2023-04-28T13:27:59.926Z,93601.41
2023-04-28T13:30:28.031Z,93601.81
2023-04-28T13:32:57.615Z,93595.69
2023-04-28T13:35:26.509Z,93596.75
2023-04-28T13:38:02.093Z,93591.25
2023-04-28T13:40:30.485Z,93594.03
2023-04-28T13:42:58.539Z,93596.63
2023-04-28T13:45:27.244Z,93600.03
2023-04-28T13:47:55.885Z,93581.25
2023-04-28T13:50:23.993Z,93595.50
2023-04-28T13:52:52.189Z,93599.56
2023-04-28T13:55:27.668Z,93591.19
2023-04-28T13:57:56.769Z,93589.84
2023-04-28T14:00:25.189Z,93588.94
2023-04-28T14:02:53.826Z,93577.38
2023-04-28T14:05:22.668Z,93550.28
2023-04-28T14:07:51.081Z,93586.94
2023-04-28T14:10:19.176Z,93567.91
2023-04-28T14:12:47.455Z,93584.97
2023-04-28T14:15:16.529Z,93576.19
2023-04-28T14:17:44.623Z,93578.56
2023-04-28T14:20:13.633Z,93586.06
2023-04-28T14:22:41.905Z,93581.25
2023-04-28T14:25:10.383Z,93586.56
2023-04-28T14:27:38.417Z,93582.47
2023-04-28T14:30:07.271Z,93582.84
2023-04-28T14:32:36.967Z,93580.94
2023-04-28T14:35:07.468Z,93579.13
2023-04-28T14:37:36.142Z,93568.22
2023-04-28T14:40:06.003Z,93567.34
2023-04-28T14:42:37.531Z,93560.34
2023-04-28T14:45:09.500Z,93564.28
2023-04-28T14:47:39.248Z,93554.81
2023-04-28T14:50:08.876Z,93544.63
2023-04-28T14:52:38.399Z,93553.09
2023-04-28T14:55:07.394Z,93555.91
2023-04-28T14:57:38.029Z,93551.75
2023-04-28T15:00:08.367Z,93538.78
2023-04-28T15:02:36.825Z,93549.41
2023-04-28T15:05:06.371Z,93545.25
2023-04-28T15:07:35.222Z,93554.38
2023-04-28T15:10:03.281Z,93558.53
2023-04-28T15:12:32.287Z,93551.38
2023-04-28T15:15:00.839Z,93553.78
2023-04-28T15:17:28.930Z,93552.22
2023-04-28T15:19:57.497Z,93553.63
2023-04-28T15:22:25.744Z,93565.69
2023-04-28T15:24:53.712Z,93557.38
2023-04-28T15:27:21.906Z,93553.03
2023-04-28T15:29:50.796Z,93549.31
2023-04-28T15:32:19.273Z,93537.75
2023-04-28T15:34:48.524Z,93556.81
2023-04-28T15:37:37.852Z,93546.06
2023-04-28T15:40:07.372Z,93544.69
2023-04-28T15:42:35.874Z,93539.16
2023-04-28T15:45:05.082Z,93547.06
2023-04-28T15:47:33.451Z,93547.72
2023-04-28T15:50:01.880Z,93542.25
2023-04-28T15:52:31.244Z,93540.13
2023-04-28T15:55:01.002Z,93548.16
2023-04-28T15:57:30.066Z,93551.03
2023-04-28T15:59:58.639Z,93541.06
2023-04-28T16:02:27.666Z,93536.72
2023-04-28T16:04:56.165Z,93529.09
2023-04-28T16:07:25.016Z,93532.69
2023-04-28T16:09:54.047Z,93535.69
2023-04-28T16:12:22.587Z,93533.91
2023-04-28T16:14:51.379Z,93529.09
2023-04-28T16:17:19.592Z,93528.41
2023-04-28T16:19:47.561Z,93534.06
2023-04-28T16:22:15.979Z,93535.16
2023-04-28T16:24:45.389Z,93550.50
2023-04-28T16:27:14.412Z,93548.19
2023-04-28T16:29:42.640Z,93553.84
2023-04-28T16:32:11.031Z,93560.44
2023-04-28T16:34:39.407Z,93559.06
2023-04-28T16:37:08.454Z,93554.38
2023-04-28T16:39:37.052Z,93555.72
2023-04-28T16:42:05.762Z,93559.47
2023-04-28T16:44:35.415Z,93559.53
2023-04-28T16:47:04.466Z,93562.25
2023-04-28T16:49:33.024Z,93562.53
2023-04-28T16:52:04.758Z,93569.78
2023-04-28T16:54:33.791Z,93560.94
2023-04-28T16:57:05.487Z,93564.47
2023-04-28T16:59:34.451Z,93574.91
2023-04-28T17:02:07.177Z,93578.13
2023-04-28T17:04:37.191Z,93575.72
2023-04-28T17:07:06.498Z,93571.19
2023-04-28T17:09:34.575Z,93578.16
2023-04-28T17:12:04.405Z,93574.97
2023-04-28T17:14:33.009Z,93576.84
2023-04-28T17:17:01.419Z,93583.34
2023-04-28T17:19:30.355Z,93590.03
2023-04-28T17:21:58.874Z,93597.28
2023-04-28T17:24:27.492Z,93603.44
2023-04-28T17:26:55.925Z,93597.56
2023-04-28T17:29:25.007Z,93601.06
2023-04-28T17:31:53.778Z,93610.97
2023-04-28T17:34:22.318Z,93604.81
2023-04-28T17:36:50.984Z,93609.88
2023-04-28T17:39:19.680Z,93617.63
2023-04-28T17:41:48.300Z,93609.59
2023-04-28T17:44:17.143Z,93625.59
2023-04-28T17:46:45.832Z,93621.56
2023-04-28T17:49:14.229Z,93618.59
2023-04-28T17:51:42.761Z,93627.41
2023-04-28T17:54:11.127Z,93630.84
2023-04-28T17:56:40.115Z,93634.81
2023-04-28T17:59:09.369Z,93633.41
2023-04-28T18:01:38.030Z,93634.44
2023-04-28T18:04:06.433Z,93638.13
2023-04-28T18:06:34.796Z,93657.31
2023-04-28T18:09:03.551Z,93639.31
2023-04-28T18:11:32.103Z,93661.22
2023-04-28T18:14:00.574Z,93662.97
2023-04-28T18:16:29.429Z,93669.19
2023-04-28T18:18:57.955Z,93670.31
2023-04-28T18:21:26.534Z,93667.28
2023-04-28T18:23:54.925Z,93674.44
2023-04-28T18:26:23.382Z,93685.03
2023-04-28T18:28:51.858Z,93676.56
2023-04-28T18:31:20.648Z,93687.97
2023-04-28T18:33:49.170Z,93694.34
2023-04-28T18:36:17.343Z,93681.66
2023-04-28T18:38:45.282Z,93691.13
2023-04-28T18:41:15.387Z,93677.75
2023-04-28T18:43:44.412Z,93689.41
2023-04-28T18:46:12.813Z,93682.94
2023-04-28T18:48:41.497Z,93687.03
2023-04-28T18:51:10.050Z,93678.94
2023-04-28T18:53:38.537Z,93688.19
2023-04-28T18:56:07.108Z,93688.66
2023-04-28T18:58:37.490Z,93695.06
2023-04-28T19:01:06.030Z,93701.25
2023-04-28T19:03:34.717Z,93694.97
2023-04-28T19:06:03.627Z,93694.16
2023-04-28T19:08:32.195Z,93693.28
2023-04-28T19:11:01.017Z,93688.75
2023-04-28T19:13:29.361Z,93690.50
2023-04-28T19:15:58.199Z,93692.88
2023-04-28T19:18:27.841Z,93685.44
2023-04-28T19:21:03.942Z,93697.13
2023-04-28T19:23:35.734Z,93702.22
2023-04-28T19:26:04.645Z,93695.72
2023-04-28T19:28:32.997Z,93692.31
2023-04-28T19:31:01.583Z,93698.09
2023-04-28T19:33:30.084Z,93657.06
2023-04-28T19:36:00.257Z,93696.97
2023-04-28T19:38:29.030Z,93701.81
2023-04-28T19:41:04.444Z,93699.75
2023-04-28T19:43:33.163Z,93693.13
2023-04-28T19:46:01.691Z,93698.34
2023-04-28T19:48:30.229Z,93698.25
2023-04-28T19:50:59.033Z,93692.28
2023-04-28T19:53:27.668Z,93701.94
2023-04-28T19:55:57.583Z,93701.47
2023-04-28T19:58:26.057Z,93699.81
2023-04-28T20:00:55.715Z,93710.09
2023-04-28T20:03:24.627Z,93685.41
2023-04-28T20:05:53.378Z,93706.53
2023-04-28T20:08:24.616Z,93701.97
2023-04-28T20:10:54.833Z,93705.06
2023-04-28T20:13:23.437Z,93703.78
2023-04-28T20:15:54.577Z,93700.78
2023-04-28T20:18:23.099Z,93701.00
2023-04-28T20:20:53.467Z,93709.56
2023-04-28T20:23:22.143Z,93698.22
2023-04-28T20:25:50.630Z,93704.72
2023-04-28T20:28:18.957Z,93701.91
2023-04-28T20:30:47.546Z,93694.41
2023-04-28T20:33:17.349Z,93696.84
2023-04-28T20:35:45.905Z,93697.16
2023-04-28T20:38:14.838Z,93682.97
2023-04-28T20:40:44.982Z,93691.84
2023-04-28T20:43:13.470Z,93698.75
2023-04-28T20:45:42.463Z,93703.31
2023-04-28T20:48:11.196Z,93694.78
2023-04-28T20:50:40.180Z,93701.13
2023-04-28T20:53:08.519Z,93704.69
2023-04-28T20:55:37.169Z,93700.50
2023-04-28T20:58:07.178Z,93703.41
2023-04-28T21:00:40.484Z,93702.34
2023-04-28T21:03:15.734Z,93707.81
2023-04-28T21:05:46.821Z,93709.97
2023-04-28T21:08:15.316Z,93706.97
2023-04-28T21:10:43.749Z,93710.88
2023-04-28T21:13:13.365Z,93704.16
2023-04-28T21:15:41.783Z,93708.06
2023-04-28T21:18:09.841Z,93710.13
2023-04-28T21:20:38.220Z,93705.22
2023-04-28T21:23:07.824Z,93717.88
2023-04-28T21:25:36.947Z,93699.50
2023-04-28T21:28:04.833Z,93712.47
2023-04-28T21:30:32.921Z,93715.28
2023-04-28T21:33:01.148Z,93712.50
2023-04-28T21:35:29.417Z,93704.09
2023-04-28T21:37:57.442Z,93711.75
2023-04-28T21:40:25.916Z,93714.56
2023-04-28T21:42:53.831Z,93718.22
2023-04-28T21:45:21.843Z,93709.91
2023-04-28T21:47:49.708Z,93710.28
2023-04-28T21:50:17.827Z,93709.09
2023-04-28T21:52:47.964Z,93719.78
2023-04-28T21:55:16.049Z,93713.69
2023-04-28T21:57:44.118Z,93712.50
2023-04-28T22:00:13.039Z,93713.38
2023-04-28T22:02:43.968Z,93711.59
2023-04-28T22:05:12.183Z,93700.91
2023-04-28T22:07:40.266Z,93697.88
2023-04-28T22:10:09.440Z,93702.84
2023-04-28T22:12:37.194Z,93711.69
2023-04-28T22:15:06.275Z,93717.47
2023-04-28T22:17:34.555Z,93707.91
2023-04-28T22:20:02.649Z,93694.31
2023-04-28T22:22:31.319Z,93705.25
2023-04-28T22:24:59.667Z,93702.25
2023-04-28T22:27:27.707Z,93706.72
2023-04-28T22:29:55.748Z,93694.13
2023-04-28T22:32:23.666Z,93702.13
2023-04-28T22:34:51.823Z,93696.63
2023-04-28T22:37:19.739Z,93705.56
2023-04-28T22:39:47.729Z,93706.81
2023-04-28T22:42:15.693Z,93703.66
2023-04-28T22:44:44.096Z,93691.47
2023-04-28T22:47:12.070Z,93697.31
2023-04-28T22:49:40.174Z,93691.38
2023-04-28T22:52:08.217Z,93692.44
2023-04-28T22:54:39.091Z,93686.56
2023-04-28T22:57:07.121Z,93678.88
2023-04-28T22:59:35.036Z,93682.97
2023-04-28T23:02:03.261Z,93673.44
2023-04-28T23:04:31.416Z,93673.13
2023-04-28T23:06:59.401Z,93671.53
2023-04-28T23:09:27.610Z,93663.19
2023-04-28T23:11:55.477Z,93662.75
2023-04-28T23:14:23.377Z,93665.44
2023-04-28T23:16:51.277Z,93666.84
2023-04-28T23:19:20.712Z,93671.19
2023-04-28T23:21:51.761Z,93667.31
2023-04-28T23:24:19.711Z,93656.94
2023-04-28T23:26:47.678Z,93657.16
2023-04-28T23:29:15.699Z,93652.09
2023-04-28T23:31:43.566Z,93646.59
2023-04-28T23:34:12.025Z,93647.38
2023-04-28T23:36:40.042Z,93643.75
2023-04-28T23:39:07.961Z,93640.50
2023-04-28T23:41:36.018Z,93636.44
2023-04-28T23:44:03.824Z,93635.03
2023-04-28T23:46:31.780Z,93636.91
2023-04-28T23:48:59.623Z,93643.19
2023-04-28T23:51:27.649Z,93629.81
2023-04-28T23:53:55.624Z,93628.59
2023-04-28T23:56:23.772Z,93640.38
2023-04-28T23:58:51.607Z,93639.97
